sensor_id;sensor_type;location;lat;lon;timestamp;pressure;altitude;pressure_sealevel;temperature;humidity
43804;BME280;29430;52.924;-2.388;2023-05-15T00:02:36;99576.66;;;10.62;82.34
43804;BME280;29430;52.924;-2.388;2023-05-15T00:07:30;99580.47;;;10.54;83.22
43804;BME280;29430;52.924;-2.388;2023-05-15T00:12:22;99576.06;;;10.53;83.11
43804;BME280;29430;52.924;-2.388;2023-05-15T00:17:14;99581.94;;;10.50;83.85
43804;BME280;29430;52.924;-2.388;2023-05-15T00:22:07;99580.09;;;10.50;83.43
43804;BME280;29430;52.924;-2.388;2023-05-15T00:26:59;99586.78;;;10.48;83.81
43804;BME280;29430;52.924;-2.388;2023-05-15T00:31:51;99594.91;;;10.48;84.37
43804;BME280;29430;52.924;-2.388;2023-05-15T00:36:43;99580.75;;;10.46;84.83
43804;BME280;29430;52.924;-2.388;2023-05-15T00:41:35;99583.91;;;10.43;84.43
43804;BME280;29430;52.924;-2.388;2023-05-15T00:46:30;99589.75;;;10.39;85.12
43804;BME280;29430;52.924;-2.388;2023-05-15T00:51:23;99581.44;;;10.34;84.71
43804;BME280;29430;52.924;-2.388;2023-05-15T00:56:15;99585.63;;;10.30;84.26
43804;BME280;29430;52.924;-2.388;2023-05-15T01:01:08;99582.13;;;10.23;85.04
43804;BME280;29430;52.924;-2.388;2023-05-15T01:06:00;99586.06;;;10.27;84.04
43804;BME280;29430;52.924;-2.388;2023-05-15T01:10:53;99586.50;;;10.24;84.06
43804;BME280;29430;52.924;-2.388;2023-05-15T01:15:45;99587.97;;;10.20;83.88
43804;BME280;29430;52.924;-2.388;2023-05-15T01:31:27;99590.84;;;9.93;83.31
43804;BME280;29430;52.924;-2.388;2023-05-15T01:36:28;99600.06;;;9.85;83.14
43804;BME280;29430;52.924;-2.388;2023-05-15T01:41:40;99599.25;;;9.78;82.97
43804;BME280;29430;52.924;-2.388;2023-05-15T01:46:43;99595.94;;;9.70;82.61
43804;BME280;29430;52.924;-2.388;2023-05-15T01:51:41;99598.47;;;9.64;82.62
43804;BME280;29430;52.924;-2.388;2023-05-15T01:56:38;99589.97;;;9.54;83.02
43804;BME280;29430;52.924;-2.388;2023-05-15T02:06:28;99606.06;;;9.36;83.09
43804;BME280;29430;52.924;-2.388;2023-05-15T02:11:20;99602.56;;;9.28;83.19
43804;BME280;29430;52.924;-2.388;2023-05-15T02:16:12;99616.50;;;9.25;83.07
43804;BME280;29430;52.924;-2.388;2023-05-15T02:21:04;99618.19;;;9.20;83.39
43804;BME280;29430;52.924;-2.388;2023-05-15T02:26:07;99624.44;;;9.13;83.50
43804;BME280;29430;52.924;-2.388;2023-05-15T02:31:07;99633.19;;;9.09;82.69
43804;BME280;29430;52.924;-2.388;2023-05-15T02:36:06;99634.03;;;9.03;82.90
43804;BME280;29430;52.924;-2.388;2023-05-15T02:40:59;99631.53;;;8.94;83.34
43804;BME280;29430;52.924;-2.388;2023-05-15T02:45:51;99639.22;;;8.91;83.39
43804;BME280;29430;52.924;-2.388;2023-05-15T02:50:43;99633.63;;;8.86;83.71
43804;BME280;29430;52.924;-2.388;2023-05-15T02:55:37;99635.72;;;8.84;83.92
43804;BME280;29430;52.924;-2.388;2023-05-15T03:00:28;99637.38;;;8.78;83.60
43804;BME280;29430;52.924;-2.388;2023-05-15T03:05:20;99641.72;;;8.72;84.27
43804;BME280;29430;52.924;-2.388;2023-05-15T03:10:12;99637.16;;;8.66;85.27
43804;BME280;29430;52.924;-2.388;2023-05-15T03:15:05;99645.25;;;8.66;85.07
43804;BME280;29430;52.924;-2.388;2023-05-15T03:19:57;99648.16;;;8.65;85.42
43804;BME280;29430;52.924;-2.388;2023-05-15T03:24:48;99650.03;;;8.64;85.60
43804;BME280;29430;52.924;-2.388;2023-05-15T03:29:41;99658.56;;;8.61;85.21
43804;BME280;29430;52.924;-2.388;2023-05-15T03:34:33;99650.88;;;8.58;85.54
43804;BME280;29430;52.924;-2.388;2023-05-15T03:39:24;99648.16;;;8.51;85.80
43804;BME280;29430;52.924;-2.388;2023-05-15T03:44:16;99654.81;;;8.49;87.10
43804;BME280;29430;52.924;-2.388;2023-05-15T03:49:07;99653.34;;;8.46;87.03
43804;BME280;29430;52.924;-2.388;2023-05-15T03:53:59;99655.59;;;8.42;87.39
43804;BME280;29430;52.924;-2.388;2023-05-15T03:58:51;99656.63;;;8.41;87.68
43804;BME280;29430;52.924;-2.388;2023-05-15T04:03:42;99647.69;;;8.41;87.49
43804;BME280;29430;52.924;-2.388;2023-05-15T04:08:34;99651.63;;;8.38;87.55
43804;BME280;29430;52.924;-2.388;2023-05-15T04:13:25;99654.94;;;8.34;87.21
43804;BME280;29430;52.924;-2.388;2023-05-15T04:18:17;99665.56;;;8.29;87.46
43804;BME280;29430;52.924;-2.388;2023-05-15T04:23:09;99667.84;;;8.25;87.54
43804;BME280;29430;52.924;-2.388;2023-05-15T04:28:00;99662.19;;;8.20;86.94
43804;BME280;29430;52.924;-2.388;2023-05-15T04:32:52;99666.97;;;8.18;86.70
43804;BME280;29430;52.924;-2.388;2023-05-15T04:37:43;99662.59;;;8.17;86.72
43804;BME280;29430;52.924;-2.388;2023-05-15T04:42:38;99663.00;;;8.14;86.41
43804;BME280;29430;52.924;-2.388;2023-05-15T04:47:30;99674.66;;;8.14;86.04
43804;BME280;29430;52.924;-2.388;2023-05-15T04:52:21;99677.38;;;8.14;86.53
43804;BME280;29430;52.924;-2.388;2023-05-15T04:57:13;99680.28;;;8.13;86.33
43804;BME280;29430;52.924;-2.388;2023-05-15T05:02:05;99682.97;;;8.19;86.33
43804;BME280;29430;52.924;-2.388;2023-05-15T05:06:56;99682.78;;;8.21;86.18
43804;BME280;29430;52.924;-2.388;2023-05-15T05:11:48;99691.56;;;8.30;86.30
43804;BME280;29430;52.924;-2.388;2023-05-15T05:16:43;99696.34;;;8.41;85.34
43804;BME280;29430;52.924;-2.388;2023-05-15T05:21:34;99698.03;;;8.42;85.55
43804;BME280;29430;52.924;-2.388;2023-05-15T05:26:26;99703.44;;;8.42;85.02
43804;BME280;29430;52.924;-2.388;2023-05-15T05:31:20;99707.66;;;8.51;85.32
43804;BME280;29430;52.924;-2.388;2023-05-15T05:36:12;99705.75;;;8.58;85.67
43804;BME280;29430;52.924;-2.388;2023-05-15T05:41:03;99696.47;;;9.01;86.83
43804;BME280;29430;52.924;-2.388;2023-05-15T05:45:55;99706.19;;;9.56;85.17
43804;BME280;29430;52.924;-2.388;2023-05-15T05:50:46;99711.22;;;10.11;83.88
43804;BME280;29430;52.924;-2.388;2023-05-15T05:55:38;99708.84;;;10.73;81.04
43804;BME280;29430;52.924;-2.388;2023-05-15T06:00:30;99713.09;;;10.87;77.02
43804;BME280;29430;52.924;-2.388;2023-05-15T06:05:22;99714.22;;;10.80;76.02
43804;BME280;29430;52.924;-2.388;2023-05-15T06:10:14;99713.47;;;10.66;76.49
43804;BME280;29430;52.924;-2.388;2023-05-15T06:15:06;99718.34;;;10.57;76.99
43804;BME280;29430;52.924;-2.388;2023-05-15T06:19:58;99724.41;;;10.52;76.86
43804;BME280;29430;52.924;-2.388;2023-05-15T06:24:49;99732.34;;;10.54;77.38
43804;BME280;29430;52.924;-2.388;2023-05-15T06:29:41;99720.41;;;10.62;77.38
43804;BME280;29430;52.924;-2.388;2023-05-15T06:34:32;99727.53;;;10.88;77.76
43804;BME280;29430;52.924;-2.388;2023-05-15T06:39:24;99736.34;;;11.77;77.54
43804;BME280;29430;52.924;-2.388;2023-05-15T06:44:16;99732.97;;;12.68;72.23
43804;BME280;29430;52.924;-2.388;2023-05-15T06:49:07;99720.13;;;13.41;70.07
43804;BME280;29430;52.924;-2.388;2023-05-15T06:53:59;99721.13;;;13.99;65.93
43804;BME280;29430;52.924;-2.388;2023-05-15T06:58:50;99712.50;;;14.43;63.62
43804;BME280;29430;52.924;-2.388;2023-05-15T07:03:42;99730.19;;;14.28;58.63
43804;BME280;29430;52.924;-2.388;2023-05-15T07:08:34;99736.84;;;14.21;62.31
43804;BME280;29430;52.924;-2.388;2023-05-15T07:13:25;99728.75;;;14.38;62.74
43804;BME280;29430;52.924;-2.388;2023-05-15T07:18:17;99726.44;;;15.04;59.72
43804;BME280;29430;52.924;-2.388;2023-05-15T07:23:09;99733.81;;;15.54;58.78
43804;BME280;29430;52.924;-2.388;2023-05-15T07:28:01;99733.03;;;15.93;57.46
43804;BME280;29430;52.924;-2.388;2023-05-15T07:32:52;99738.19;;;16.34;52.83
43804;BME280;29430;52.924;-2.388;2023-05-15T07:37:44;99759.81;;;15.74;53.39
43804;BME280;29430;52.924;-2.388;2023-05-15T07:42:37;99751.78;;;15.16;53.81
43804;BME280;29430;52.924;-2.388;2023-05-15T07:47:30;99753.69;;;14.99;55.55
43804;BME280;29430;52.924;-2.388;2023-05-15T07:52:21;99754.34;;;15.06;56.65
43804;BME280;29430;52.924;-2.388;2023-05-15T07:57:13;99762.97;;;15.66;54.77
43804;BME280;29430;52.924;-2.388;2023-05-15T08:02:05;99758.47;;;15.76;54.95
43804;BME280;29430;52.924;-2.388;2023-05-15T08:06:57;99761.91;;;15.84;52.44
43804;BME280;29430;52.924;-2.388;2023-05-15T08:11:49;99765.56;;;15.38;51.16
43804;BME280;29430;52.924;-2.388;2023-05-15T08:16:40;99772.22;;;14.97;51.97
43804;BME280;29430;52.924;-2.388;2023-05-15T08:21:32;99770.91;;;14.59;52.76
43804;BME280;29430;52.924;-2.388;2023-05-15T08:26:25;99774.94;;;14.27;53.02
43804;BME280;29430;52.924;-2.388;2023-05-15T08:31:16;99786.03;;;14.49;54.65
43804;BME280;29430;52.924;-2.388;2023-05-15T08:36:08;99775.25;;;14.83;54.78
43804;BME280;29430;52.924;-2.388;2023-05-15T08:41:11;99776.31;;;15.28;53.16
43804;BME280;29430;52.924;-2.388;2023-05-15T08:46:19;99780.53;;;15.36;49.87
43804;BME280;29430;52.924;-2.388;2023-05-15T08:51:11;99775.50;;;15.28;51.47
43804;BME280;29430;52.924;-2.388;2023-05-15T08:56:04;99783.38;;;16.14;51.18
43804;BME280;29430;52.924;-2.388;2023-05-15T09:00:56;99777.44;;;17.16;50.30
43804;BME280;29430;52.924;-2.388;2023-05-15T09:05:50;99766.94;;;17.78;47.03
43804;BME280;29430;52.924;-2.388;2023-05-15T09:10:43;99766.16;;;18.30;45.24
43804;BME280;29430;52.924;-2.388;2023-05-15T09:15:36;99781.97;;;18.66;45.25
43804;BME280;29430;52.924;-2.388;2023-05-15T09:30:26;99807.53;;;17.38;44.89
43804;BME280;29430;52.924;-2.388;2023-05-15T09:35:31;99814.06;;;16.82;45.60
43804;BME280;29430;52.924;-2.388;2023-05-15T09:40:27;99812.34;;;16.32;48.06
43804;BME280;29430;52.924;-2.388;2023-05-15T09:45:19;99811.72;;;16.91;47.10
43804;BME280;29430;52.924;-2.388;2023-05-15T09:50:11;99805.63;;;17.76;46.36
43804;BME280;29430;52.924;-2.388;2023-05-15T09:55:04;99811.69;;;18.79;45.13
43804;BME280;29430;52.924;-2.388;2023-05-15T09:59:59;99811.94;;;18.72;42.42
43804;BME280;29430;52.924;-2.388;2023-05-15T10:04:54;99819.56;;;18.07;43.40
43804;BME280;29430;52.924;-2.388;2023-05-15T10:09:46;99822.88;;;17.39;43.95
43804;BME280;29430;52.924;-2.388;2023-05-15T10:14:38;99826.91;;;16.82;44.63
43804;BME280;29430;52.924;-2.388;2023-05-15T10:19:29;99818.66;;;16.99;47.25
43804;BME280;29430;52.924;-2.388;2023-05-15T10:24:22;99811.69;;;17.78;44.62
43804;BME280;29430;52.924;-2.388;2023-05-15T10:29:17;99823.63;;;17.94;44.26
43804;BME280;29430;52.924;-2.388;2023-05-15T10:34:11;99832.09;;;17.28;44.93
43804;BME280;29430;52.924;-2.388;2023-05-15T10:39:04;99830.25;;;16.84;46.18
43804;BME280;29430;52.924;-2.388;2023-05-15T10:43:57;99838.47;;;16.84;45.51
43804;BME280;29430;52.924;-2.388;2023-05-15T10:48:50;99827.44;;;17.61;44.90
43804;BME280;29430;52.924;-2.388;2023-05-15T10:53:43;99830.13;;;18.25;46.95
43804;BME280;29430;52.924;-2.388;2023-05-15T10:58:35;99831.84;;;19.00;45.42
43804;BME280;29430;52.924;-2.388;2023-05-15T11:03:38;99848.97;;;19.33;43.89
43804;BME280;29430;52.924;-2.388;2023-05-15T11:08:41;99848.31;;;18.90;41.36
43804;BME280;29430;52.924;-2.388;2023-05-15T11:18:56;99827.72;;;18.98;42.87
43804;BME280;29430;52.924;-2.388;2023-05-15T11:24:02;99848.22;;;18.79;41.04
43804;BME280;29430;52.924;-2.388;2023-05-15T11:29:17;99836.50;;;19.00;43.01
43804;BME280;29430;52.924;-2.388;2023-05-15T11:34:09;99851.94;;;19.11;39.53
43804;BME280;29430;52.924;-2.388;2023-05-15T11:39:00;99829.41;;;19.19;41.66
43804;BME280;29430;52.924;-2.388;2023-05-15T11:43:52;99847.75;;;18.88;39.39
43804;BME280;29430;52.924;-2.388;2023-05-15T11:48:45;99848.47;;;18.73;41.82
43804;BME280;29430;52.924;-2.388;2023-05-15T11:53:40;99841.72;;;19.01;42.37
43804;BME280;29430;52.924;-2.388;2023-05-15T11:58:33;99849.97;;;18.96;40.04
43804;BME280;29430;52.924;-2.388;2023-05-15T12:08:16;99853.78;;;18.85;41.40
43804;BME280;29430;52.924;-2.388;2023-05-15T12:13:12;99844.22;;;18.98;41.60
43804;BME280;29430;52.924;-2.388;2023-05-15T12:18:05;99857.38;;;18.90;40.52
43804;BME280;29430;52.924;-2.388;2023-05-15T12:22:58;99851.88;;;18.85;40.08
43804;BME280;29430;52.924;-2.388;2023-05-15T12:27:50;99848.50;;;18.78;40.34
43804;BME280;29430;52.924;-2.388;2023-05-15T12:32:42;99837.44;;;18.57;40.86
43804;BME280;29430;52.924;-2.388;2023-05-15T12:37:34;99847.63;;;18.67;40.26
43804;BME280;29430;52.924;-2.388;2023-05-15T12:42:26;99867.56;;;18.37;38.99
43804;BME280;29430;52.924;-2.388;2023-05-15T12:47:22;99858.59;;;18.09;39.63
43804;BME280;29430;52.924;-2.388;2023-05-15T12:52:15;99860.44;;;17.98;39.25
43804;BME280;29430;52.924;-2.388;2023-05-15T12:57:07;99857.63;;;17.93;40.25
43804;BME280;29430;52.924;-2.388;2023-05-15T13:02:00;99861.16;;;17.88;41.58
43804;BME280;29430;52.924;-2.388;2023-05-15T13:06:52;99865.66;;;17.67;39.87
43804;BME280;29430;52.924;-2.388;2023-05-15T13:11:44;99874.31;;;17.54;41.41
43804;BME280;29430;52.924;-2.388;2023-05-15T13:16:35;99864.38;;;17.48;41.39
43804;BME280;29430;52.924;-2.388;2023-05-15T13:21:28;99877.53;;;17.46;40.54
43804;BME280;29430;52.924;-2.388;2023-05-15T13:26:20;99874.78;;;17.46;44.16
43804;BME280;29430;52.924;-2.388;2023-05-15T13:31:12;99883.13;;;17.29;41.45
43804;BME280;29430;52.924;-2.388;2023-05-15T13:36:04;99876.75;;;17.23;44.09
43804;BME280;29430;52.924;-2.388;2023-05-15T13:40:55;99873.44;;;17.21;42.18
43804;BME280;29430;52.924;-2.388;2023-05-15T13:45:47;99879.25;;;17.03;42.31
43804;BME280;29430;52.924;-2.388;2023-05-15T13:50:39;99878.81;;;16.89;41.43
43804;BME280;29430;52.924;-2.388;2023-05-15T13:55:31;99879.47;;;16.79;42.35
43804;BME280;29430;52.924;-2.388;2023-05-15T14:00:23;99887.69;;;16.79;43.93
43804;BME280;29430;52.924;-2.388;2023-05-15T14:05:16;99893.78;;;16.81;43.61
43804;BME280;29430;52.924;-2.388;2023-05-15T14:10:08;99883.63;;;16.81;43.72
43804;BME280;29430;52.924;-2.388;2023-05-15T14:15:00;99887.34;;;16.70;43.35
43804;BME280;29430;52.924;-2.388;2023-05-15T14:19:52;99891.44;;;16.51;42.57
43804;BME280;29430;52.924;-2.388;2023-05-15T14:24:43;99894.72;;;16.31;42.12
43804;BME280;29430;52.924;-2.388;2023-05-15T14:29:35;99882.28;;;16.23;44.35
43804;BME280;29430;52.924;-2.388;2023-05-15T14:34:29;99878.22;;;16.25;44.81
43804;BME280;29430;52.924;-2.388;2023-05-15T14:39:20;99885.34;;;16.26;44.90
43804;BME280;29430;52.924;-2.388;2023-05-15T14:44:12;99890.00;;;16.26;43.95
43804;BME280;29430;52.924;-2.388;2023-05-15T14:49:04;99879.00;;;16.21;44.73
43804;BME280;29430;52.924;-2.388;2023-05-15T14:53:56;99882.13;;;16.13;45.13
43804;BME280;29430;52.924;-2.388;2023-05-15T14:58:48;99895.41;;;16.04;44.33
43804;BME280;29430;52.924;-2.388;2023-05-15T15:03:41;99896.41;;;15.98;43.73
43804;BME280;29430;52.924;-2.388;2023-05-15T15:08:35;99889.69;;;15.88;45.64
43804;BME280;29430;52.924;-2.388;2023-05-15T15:13:27;99885.31;;;15.87;45.01
43804;BME280;29430;52.924;-2.388;2023-05-15T15:18:20;99890.19;;;15.85;45.71
43804;BME280;29430;52.924;-2.388;2023-05-15T15:23:12;99888.28;;;15.86;46.44
43804;BME280;29430;52.924;-2.388;2023-05-15T15:28:04;99887.53;;;15.90;47.27
43804;BME280;29430;52.924;-2.388;2023-05-15T15:32:55;99876.34;;;15.92;45.64
43804;BME280;29430;52.924;-2.388;2023-05-15T15:37:48;99880.81;;;15.81;47.27
43804;BME280;29430;52.924;-2.388;2023-05-15T15:42:39;99886.78;;;15.78;47.05
43804;BME280;29430;52.924;-2.388;2023-05-15T15:47:31;99892.91;;;15.68;46.62
43804;BME280;29430;52.924;-2.388;2023-05-15T15:52:25;99907.81;;;15.61;46.95
43804;BME280;29430;52.924;-2.388;2023-05-15T15:57:17;99904.38;;;15.53;47.19
43804;BME280;29430;52.924;-2.388;2023-05-15T16:02:11;99891.94;;;15.46;47.24
43804;BME280;29430;52.924;-2.388;2023-05-15T16:07:04;99902.06;;;15.45;47.44
43804;BME280;29430;52.924;-2.388;2023-05-15T16:11:55;99903.28;;;15.37;48.10
43804;BME280;29430;52.924;-2.388;2023-05-15T16:16:47;99902.94;;;15.34;47.74
43804;BME280;29430;52.924;-2.388;2023-05-15T16:21:39;99911.88;;;15.29;47.84
43804;BME280;29430;52.924;-2.388;2023-05-15T16:26:31;99915.09;;;15.26;48.33
43804;BME280;29430;52.924;-2.388;2023-05-15T16:31:23;99925.31;;;15.31;48.52
43804;BME280;29430;52.924;-2.388;2023-05-15T16:36:15;99918.41;;;15.28;48.89
43804;BME280;29430;52.924;-2.388;2023-05-15T16:41:07;99927.34;;;15.24;48.42
43804;BME280;29430;52.924;-2.388;2023-05-15T16:45:59;99925.81;;;15.16;48.04
43804;BME280;29430;52.924;-2.388;2023-05-15T16:50:50;99934.91;;;15.04;48.18
43804;BME280;29430;52.924;-2.388;2023-05-15T16:55:43;99930.75;;;15.02;49.27
43804;BME280;29430;52.924;-2.388;2023-05-15T17:00:35;99939.75;;;15.02;49.50
43804;BME280;29430;52.924;-2.388;2023-05-15T17:05:26;99936.34;;;14.95;50.18
43804;BME280;29430;52.924;-2.388;2023-05-15T17:10:18;99946.22;;;14.84;49.99
43804;BME280;29430;52.924;-2.388;2023-05-15T17:15:10;99948.72;;;14.74;50.55
43804;BME280;29430;52.924;-2.388;2023-05-15T17:20:02;99941.50;;;14.68;50.85
43804;BME280;29430;52.924;-2.388;2023-05-15T17:24:54;99936.00;;;14.56;51.60
43804;BME280;29430;52.924;-2.388;2023-05-15T17:29:46;99941.34;;;14.51;52.37
43804;BME280;29430;52.924;-2.388;2023-05-15T17:34:38;99949.69;;;14.44;53.42
43804;BME280;29430;52.924;-2.388;2023-05-15T17:39:30;99943.03;;;14.40;53.76
43804;BME280;29430;52.924;-2.388;2023-05-15T17:44:22;99948.59;;;14.33;53.00
43804;BME280;29430;52.924;-2.388;2023-05-15T17:49:18;99947.78;;;14.21;53.41
43804;BME280;29430;52.924;-2.388;2023-05-15T17:54:09;99958.78;;;14.14;53.83
43804;BME280;29430;52.924;-2.388;2023-05-15T17:59:01;99964.34;;;14.08;53.53
43804;BME280;29430;52.924;-2.388;2023-05-15T18:03:54;99965.88;;;14.04;54.46
43804;BME280;29430;52.924;-2.388;2023-05-15T18:08:45;99979.03;;;13.95;54.24
43804;BME280;29430;52.924;-2.388;2023-05-15T18:13:38;99976.84;;;13.85;53.08
43804;BME280;29430;52.924;-2.388;2023-05-15T18:18:30;99982.66;;;13.77;53.78
43804;BME280;29430;52.924;-2.388;2023-05-15T18:23:21;99974.53;;;13.58;52.75
43804;BME280;29430;52.924;-2.388;2023-05-15T18:28:13;99984.78;;;13.45;53.26
43804;BME280;29430;52.924;-2.388;2023-05-15T18:33:05;99986.38;;;13.34;55.01
43804;BME280;29430;52.924;-2.388;2023-05-15T18:37:57;99981.81;;;13.28;55.33
43804;BME280;29430;52.924;-2.388;2023-05-15T18:42:49;99990.47;;;13.24;56.31
43804;BME280;29430;52.924;-2.388;2023-05-15T18:47:41;99986.91;;;13.24;57.00
43804;BME280;29430;52.924;-2.388;2023-05-15T18:52:32;99993.03;;;13.19;57.29
43804;BME280;29430;52.924;-2.388;2023-05-15T18:57:24;99996.28;;;13.10;57.70
43804;BME280;29430;52.924;-2.388;2023-05-15T19:02:16;100004.53;;;13.03;58.59
43804;BME280;29430;52.924;-2.388;2023-05-15T19:07:08;100014.50;;;12.90;58.39
43804;BME280;29430;52.924;-2.388;2023-05-15T19:11:59;100009.59;;;12.81;58.94
43804;BME280;29430;52.924;-2.388;2023-05-15T19:16:52;100007.81;;;12.68;59.30
43804;BME280;29430;52.924;-2.388;2023-05-15T19:21:44;100015.69;;;12.58;60.14
43804;BME280;29430;52.924;-2.388;2023-05-15T19:26:37;100010.72;;;12.48;60.53
43804;BME280;29430;52.924;-2.388;2023-05-15T19:31:29;100017.94;;;12.35;60.83
43804;BME280;29430;52.924;-2.388;2023-05-15T19:36:22;100028.75;;;12.24;62.19
43804;BME280;29430;52.924;-2.388;2023-05-15T19:41:14;100034.22;;;12.17;62.20
43804;BME280;29430;52.924;-2.388;2023-05-15T19:46:06;100040.13;;;12.07;62.51
43804;BME280;29430;52.924;-2.388;2023-05-15T19:50:57;100058.19;;;11.95;62.41
43804;BME280;29430;52.924;-2.388;2023-05-15T19:55:49;100053.66;;;11.82;63.00
43804;BME280;29430;52.924;-2.388;2023-05-15T20:00:41;100052.91;;;11.68;63.12
43804;BME280;29430;52.924;-2.388;2023-05-15T20:05:33;100048.13;;;11.57;63.42
43804;BME280;29430;52.924;-2.388;2023-05-15T20:10:24;100047.56;;;11.48;63.27
43804;BME280;29430;52.924;-2.388;2023-05-15T20:15:16;100057.22;;;11.37;63.81
43804;BME280;29430;52.924;-2.388;2023-05-15T20:20:09;100046.56;;;11.29;64.31
43804;BME280;29430;52.924;-2.388;2023-05-15T20:25:02;100063.53;;;11.18;64.46
43804;BME280;29430;52.924;-2.388;2023-05-15T20:29:54;100059.97;;;11.10;65.09
43804;BME280;29430;52.924;-2.388;2023-05-15T20:34:47;100067.72;;;11.07;65.39
43804;BME280;29430;52.924;-2.388;2023-05-15T20:39:39;100074.00;;;11.01;65.59
43804;BME280;29430;52.924;-2.388;2023-05-15T20:44:30;100062.13;;;10.88;65.99
43804;BME280;29430;52.924;-2.388;2023-05-15T20:49:25;100070.06;;;10.83;66.27
43804;BME280;29430;52.924;-2.388;2023-05-15T20:54:17;100075.50;;;10.77;67.07
43804;BME280;29430;52.924;-2.388;2023-05-15T20:59:09;100075.09;;;10.73;67.66
43804;BME280;29430;52.924;-2.388;2023-05-15T21:04:01;100065.50;;;10.64;67.81
43804;BME280;29430;52.924;-2.388;2023-05-15T21:08:53;100071.53;;;10.59;68.72
43804;BME280;29430;52.924;-2.388;2023-05-15T21:13:44;100067.81;;;10.53;69.36
43804;BME280;29430;52.924;-2.388;2023-05-15T21:18:36;100071.78;;;10.44;69.73
43804;BME280;29430;52.924;-2.388;2023-05-15T21:23:29;100055.69;;;10.36;69.89
43804;BME280;29430;52.924;-2.388;2023-05-15T21:28:21;100071.94;;;10.29;70.49
43804;BME280;29430;52.924;-2.388;2023-05-15T21:33:12;100071.28;;;10.20;71.11
43804;BME280;29430;52.924;-2.388;2023-05-15T21:38:04;100079.00;;;10.10;71.24
43804;BME280;29430;52.924;-2.388;2023-05-15T21:42:56;100089.81;;;10.03;71.94
43804;BME280;29430;52.924;-2.388;2023-05-15T21:47:47;100081.06;;;9.95;72.17
43804;BME280;29430;52.924;-2.388;2023-05-15T21:52:39;100079.56;;;9.85;72.18
43804;BME280;29430;52.924;-2.388;2023-05-15T21:57:31;100086.00;;;9.78;72.35
43804;BME280;29430;52.924;-2.388;2023-05-15T22:02:22;100088.28;;;9.74;71.94
43804;BME280;29430;52.924;-2.388;2023-05-15T22:07:14;100082.44;;;9.71;72.17
43804;BME280;29430;52.924;-2.388;2023-05-15T22:12:06;100089.47;;;9.58;72.20
43804;BME280;29430;52.924;-2.388;2023-05-15T22:16:57;100095.50;;;9.54;72.04
43804;BME280;29430;52.924;-2.388;2023-05-15T22:21:49;100085.25;;;9.49;72.22
43804;BME280;29430;52.924;-2.388;2023-05-15T22:26:41;100092.50;;;9.42;71.98
43804;BME280;29430;52.924;-2.388;2023-05-15T22:31:33;100092.50;;;9.35;72.22
43804;BME280;29430;52.924;-2.388;2023-05-15T22:36:25;100083.47;;;9.28;72.17
43804;BME280;29430;52.924;-2.388;2023-05-15T22:41:17;100096.81;;;9.29;72.21
43804;BME280;29430;52.924;-2.388;2023-05-15T22:46:08;100096.41;;;9.26;72.27
43804;BME280;29430;52.924;-2.388;2023-05-15T22:51:00;100104.69;;;9.18;72.33
43804;BME280;29430;52.924;-2.388;2023-05-15T22:55:52;100102.78;;;9.11;72.48
43804;BME280;29430;52.924;-2.388;2023-05-15T23:00:44;100109.78;;;8.99;72.91
43804;BME280;29430;52.924;-2.388;2023-05-15T23:05:35;100106.38;;;8.90;72.51
43804;BME280;29430;52.924;-2.388;2023-05-15T23:10:27;100111.75;;;8.84;73.30
43804;BME280;29430;52.924;-2.388;2023-05-15T23:15:19;100112.13;;;8.81;73.65
43804;BME280;29430;52.924;-2.388;2023-05-15T23:20:11;100119.16;;;8.75;73.83
43804;BME280;29430;52.924;-2.388;2023-05-15T23:25:05;100122.00;;;8.67;73.83
43804;BME280;29430;52.924;-2.388;2023-05-15T23:29:57;100117.56;;;8.59;73.97
43804;BME280;29430;52.924;-2.388;2023-05-15T23:34:52;100131.88;;;8.53;74.75
43804;BME280;29430;52.924;-2.388;2023-05-15T23:39:44;100119.75;;;8.49;75.34
43804;BME280;29430;52.924;-2.388;2023-05-15T23:44:37;100127.25;;;8.47;75.17
43804;BME280;29430;52.924;-2.388;2023-05-15T23:49:28;100121.72;;;8.40;76.22
43804;BME280;29430;52.924;-2.388;2023-05-15T23:54:23;100118.38;;;8.38;76.25
43804;BME280;29430;52.924;-2.388;2023-05-15T23:59:15;100117.47;;;8.31;76.73
